Escanaba, MI (49829)

2:10 AM EDT on July 28, 2016 (GMT -0400)
Hurley Marine Lake Side Weather | | Change Station

Elev 607 ft 45.73 °N, 87.06 °W | Updated 24 seconds ago

Overcast
Overcast
62.8 °F
Feels Like 62.8 °F
N
4.0
Wind Variable Wind from NE
Gusts 7.0 mph

Today
High -- | Low -- °F
--% Chance of Precip.
Yesterday
High -- | Low -- °F
Precip. -- in
Pressure 30.01 in
Visibility 10.0 miles
Clouds Scattered Clouds 8500 ft
Overcast 10000 ft
Dew Point 59 °F
Humidity 88%
Rainfall 0.00 in
Snow Depth Not available.
6:27 AM 9:21 PM
Waning Crescent, 35% visible
METAR KESC 280555Z AUTO 01003KT 10SM SCT085 OVC100 16/14 A3001 RMK AO1 10220 20160 402600160 52010
Pressure 30.01 in
Visibility 10.0 miles
Clouds Scattered Clouds 8500 ft
Overcast 10000 ft
Dew Point 59 °F
Humidity 88%
Rainfall 0.00 in
Snow Depth Not available.
6:27 AM 9:21 PM
Waning Crescent, 35% visible
METAR KESC 280555Z AUTO 01003KT 10SM SCT085 OVC100 16/14 A3001 RMK AO1 10220 20160 402600160 52010

10-Day Weather Forecast

Almanac

Astronomy

Jul. 28, 2016 Rise Set
Actual Time
Civil Twilight
Nautical Twilight
Astronomical Twilight
Moon
Length of Visible Light
Length of Day
Tomorrow will be .
, % of the Moon is Illuminated

Today's Extremes

State Highs State Lows

Community

WunderPhotos

Upload Photos

1,928,064 photos uploaded!

WunderBlog® & News

Nearby

Air Quality

  Air Quality AQ Index Pollutant
Not available.

Snow Depth

Station Depth Elevation

Earthquake Activity

City Distance Mag. Time & Date
Minimum magnitude displayed is 2.5.

Coastal Water Temperatures

Place Temperature

Stations

Nearby Weather Stations

Station Location Temp. Windchill Dew Point Humidity Wind Precip. Elev Updated Type
                   

Watches & Warnings

There are currently no watches in effect.